Time,TemperatureF,DewpointF,PressureIn,WindDirection,WindDirectionDegrees,WindSpeedMPH,WindSpeedGustMPH,Humidity,HourlyPrecipIn,Conditions,Clouds,dailyrainin,SoftwareType,DateUTC
2013-03-19 00:04:00,28.6,17.0,29.98,West,263,13.0,14.0,63,0.00,,,0.03,weatherlink.com 1.10,2013-03-19 05:04:00,
2013-03-19 00:19:00,28.6,18.0,29.98,West,277,9.0,13.0,64,0.00,,,0.03,weatherlink.com 1.10,2013-03-19 05:19:00,
2013-03-19 00:34:00,28.4,18.0,29.98,WNW,288,5.0,11.0,65,0.00,,,0.00,weatherlink.com 1.10,2013-03-19 05:34:00,
2013-03-19 00:49:00,28.3,18.0,29.97,WNW,295,6.0,10.0,65,0.00,,,0.00,weatherlink.com 1.10,2013-03-19 05:49:00,
2013-03-19 01:04:00,28.1,18.0,29.96,NW,307,7.0,9.0,65,0.00,,,0.00,weatherlink.com 1.10,2013-03-19 06:04:00,
2013-03-19 01:19:00,28.0,18.0,29.96,WNW,291,8.0,10.0,66,0.00,,,0.00,weatherlink.com 1.10,2013-03-19 06:19:00,
2013-03-19 01:34:00,27.9,18.0,29.97,West,281,9.0,10.0,67,0.00,,,0.00,weatherlink.com 1.10,2013-03-19 06:34:00,
2013-03-19 01:49:00,28.0,18.0,29.98,WNW,286,6.0,13.0,66,0.00,,,0.00,weatherlink.com 1.10,2013-03-19 06:49:00,
2013-03-19 02:04:00,27.9,18.0,29.99,WNW,284,5.0,16.0,66,0.00,,,0.00,weatherlink.com 1.10,2013-03-19 07:04:00,
2013-03-19 02:19:00,27.7,18.0,29.99,NNW,329,8.0,14.0,67,0.00,,,0.00,weatherlink.com 1.10,2013-03-19 07:19:00,
2013-03-19 02:34:00,27.5,17.0,29.99,WNW,290,6.0,17.0,66,0.00,,,0.00,weatherlink.com 1.10,2013-03-19 07:34:00,
2013-03-19 02:49:00,27.5,17.0,30.00,WNW,288,7.0,15.0,66,0.00,,,0.00,weatherlink.com 1.10,2013-03-19 07:49:00,
2013-03-19 03:20:00,27.0,17.0,29.99,WNW,287,5.0,15.0,67,0.00,,,0.00,weatherlink.com 1.10,2013-03-19 08:20:00,
2013-03-19 03:35:00,26.8,18.0,29.99,West,281,7.0,12.0,68,0.00,,,0.00,weatherlink.com 1.10,2013-03-19 08:35:00,
2013-03-19 03:50:00,26.7,17.0,29.99,NW,320,5.0,16.0,67,0.00,,,0.00,weatherlink.com 1.10,2013-03-19 08:50:00,
2013-03-19 04:05:00,26.3,17.0,30.00,WNW,283,6.0,14.0,68,0.00,,,0.00,weatherlink.com 1.10,2013-03-19 09:05:00,
2013-03-19 04:20:00,25.9,17.0,30.01,West,267,5.0,12.0,69,0.00,,,0.00,weatherlink.com 1.10,2013-03-19 09:20:00,
2013-03-19 04:35:00,25.7,18.0,30.02,West,274,3.0,9.0,71,0.00,,,0.00,weatherlink.com 1.10,2013-03-19 09:35:00,
2013-03-19 04:50:00,25.4,18.0,30.02,WNW,285,5.0,13.0,72,0.00,,,0.00,weatherlink.com 1.10,2013-03-19 09:50:00,
2013-03-19 05:05:00,25.0,17.0,30.03,WNW,300,8.0,11.0,72,0.00,,,0.00,weatherlink.com 1.10,2013-03-19 10:05:00,
2013-03-19 05:20:00,24.6,17.0,30.03,WNW,289,5.0,10.0,72,0.00,,,0.00,weatherlink.com 1.10,2013-03-19 10:20:00,
2013-03-19 05:35:00,24.3,16.0,30.04,WNW,300,5.0,15.0,72,0.00,,,0.00,weatherlink.com 1.10,2013-03-19 10:35:00,
2013-03-19 05:50:00,24.1,16.0,30.04,WSW,258,2.0,13.0,71,0.00,,,0.00,weatherlink.com 1.10,2013-03-19 10:50:00,
2013-03-19 06:05:00,23.9,16.0,30.04,WNW,301,4.0,11.0,71,0.00,,,0.00,weatherlink.com 1.10,2013-03-19 11:05:00,
2013-03-19 06:20:00,23.6,15.0,30.04,NW,317,6.0,10.0,71,0.00,,,0.00,weatherlink.com 1.10,2013-03-19 11:20:00,
2013-03-19 06:35:00,23.4,16.0,30.05,West,281,4.0,10.0,72,0.00,,,0.00,weatherlink.com 1.10,2013-03-19 11:35:00,
2013-03-19 06:50:00,23.3,15.0,30.06,WNW,295,7.0,9.0,71,0.00,,,0.00,weatherlink.com 1.10,2013-03-19 11:50:00,
2013-03-19 07:05:00,23.2,15.0,30.07,WNW,290,6.0,12.0,71,0.00,,,0.00,weatherlink.com 1.10,2013-03-19 12:05:00,
2013-03-19 07:20:00,23.4,15.0,30.07,NW,307,7.0,11.0,70,0.00,,,0.00,weatherlink.com 1.10,2013-03-19 12:20:00,
2013-03-19 07:35:00,23.7,15.0,30.07,WNW,295,5.0,11.0,68,0.00,,,0.00,weatherlink.com 1.10,2013-03-19 12:35:00,
2013-03-19 07:50:00,23.8,14.0,30.08,West,279,4.0,12.0,66,0.00,,,0.00,weatherlink.com 1.10,2013-03-19 12:50:00,
2013-03-19 08:05:00,23.8,13.0,30.09,West,278,11.0,17.0,64,0.00,,,0.00,weatherlink.com 1.10,2013-03-19 13:05:00,
2013-03-19 08:20:00,24.0,13.0,30.10,NW,319,5.0,16.0,63,0.00,,,0.00,weatherlink.com 1.10,2013-03-19 13:20:00,
2013-03-19 08:35:00,24.4,13.0,30.11,WNW,285,4.0,15.0,63,0.00,,,0.00,weatherlink.com 1.10,2013-03-19 13:35:00,
2013-03-19 08:50:00,24.9,13.0,30.12,NNW,346,14.0,17.0,62,0.00,,,0.00,weatherlink.com 1.10,2013-03-19 13:50:00,
2013-03-19 09:06:00,25.4,14.0,30.12,WSW,253,7.0,16.0,61,0.00,,,0.00,weatherlink.com 1.10,2013-03-19 14:06:00,
2013-03-19 09:21:00,26.1,15.0,30.12,NW,304,4.0,13.0,62,0.00,,,0.00,weatherlink.com 1.10,2013-03-19 14:21:00,
2013-03-19 09:36:00,26.3,14.0,30.13,West,259,8.0,15.0,59,0.00,,,0.00,weatherlink.com 1.10,2013-03-19 14:36:00,
2013-03-19 09:51:00,26.9,12.0,30.13,WNW,291,8.0,19.0,54,0.00,,,0.00,weatherlink.com 1.10,2013-03-19 14:51:00,
2013-03-19 10:06:00,27.5,12.0,30.14,West,267,11.0,14.0,53,0.00,,,0.00,weatherlink.com 1.10,2013-03-19 15:06:00,
2013-03-19 11:06:00,30.5,14.0,30.17,WNW,287,5.0,18.0,51,0.00,,,0.00,weatherlink.com 1.10,2013-03-19 16:06:00,
2013-03-19 11:36:00,33.0,16.0,30.18,WNW,283,4.0,12.0,49,0.00,,,0.00,weatherlink.com 1.10,2013-03-19 16:36:00,
2013-03-19 11:52:00,32.3,12.0,30.18,NNW,343,5.0,17.0,43,0.00,,,0.00,weatherlink.com 1.10,2013-03-19 16:52:00,
2013-03-19 12:06:00,34.0,12.0,30.18,West,276,11.0,12.0,41,0.00,,,0.00,weatherlink.com 1.10,2013-03-19 17:06:00,
2013-03-19 12:21:00,34.2,13.0,30.18,NW,319,7.0,18.0,42,0.00,,,0.00,weatherlink.com 1.10,2013-03-19 17:21:00,
2013-03-19 12:36:00,35.3,15.0,30.18,West,276,6.0,15.0,43,0.00,,,0.00,weatherlink.com 1.10,2013-03-19 17:36:00,
2013-03-19 12:51:00,36.1,13.0,30.18,NW,321,4.0,13.0,39,0.00,,,0.00,weatherlink.com 1.10,2013-03-19 17:51:00,
2013-03-19 13:06:00,37.2,16.0,30.18,West,274,4.0,13.0,42,0.00,,,0.00,weatherlink.com 1.10,2013-03-19 18:06:00,
2013-03-19 13:21:00,37.8,14.0,30.18,West,264,8.0,13.0,38,0.00,,,0.00,weatherlink.com 1.10,2013-03-19 18:21:00,
2013-03-19 13:36:00,38.5,14.0,30.18,West,272,6.0,12.0,36,0.00,,,0.00,weatherlink.com 1.10,2013-03-19 18:36:00,
2013-03-19 13:51:00,39.3,15.0,30.18,West,273,10.0,12.0,37,0.00,,,0.00,weatherlink.com 1.10,2013-03-19 18:51:00,
2013-03-19 14:06:00,39.6,15.0,30.18,NW,326,6.0,14.0,36,0.00,,,0.00,weatherlink.com 1.10,2013-03-19 19:06:00,
2013-03-19 14:21:00,39.2,14.0,30.17,WNW,284,4.0,13.0,36,0.00,,,0.00,weatherlink.com 1.10,2013-03-19 19:21:00,
2013-03-19 14:36:00,40.0,15.0,30.17,WNW,290,7.0,18.0,37,0.00,,,0.00,weatherlink.com 1.10,2013-03-19 19:36:00,
2013-03-19 14:52:00,39.9,15.0,30.17,West,267,5.0,15.0,37,0.00,,,0.00,weatherlink.com 1.10,2013-03-19 19:52:00,
2013-03-19 15:07:00,40.7,15.0,30.16,WNW,293,7.0,11.0,36,0.00,,,0.00,weatherlink.com 1.10,2013-03-19 20:07:00,
2013-03-19 15:21:00,41.2,15.0,30.16,NW,307,6.0,10.0,34,0.00,,,0.00,weatherlink.com 1.10,2013-03-19 20:21:00,
2013-03-19 15:37:00,41.2,16.0,30.17,WNW,293,8.0,12.0,36,0.00,,,0.00,weatherlink.com 1.10,2013-03-19 20:37:00,
2013-03-19 15:52:00,41.1,16.0,30.17,West,264,11.0,13.0,36,0.00,,,0.00,weatherlink.com 1.10,2013-03-19 20:52:00,
2013-03-19 16:09:00,41.2,15.0,30.18,WNW,282,7.0,13.0,35,0.00,,,0.00,weatherlink.com 1.10,2013-03-19 21:09:00,
2013-03-19 16:22:00,41.1,16.0,30.18,WNW,298,8.0,12.0,37,0.00,,,0.00,weatherlink.com 1.10,2013-03-19 21:22:00,
2013-03-19 16:37:00,41.7,16.0,30.17,WNW,288,4.0,9.0,36,0.00,,,0.00,weatherlink.com 1.10,2013-03-19 21:37:00,
2013-03-19 16:52:00,41.5,14.0,30.18,WNW,297,9.0,16.0,33,0.00,,,0.00,weatherlink.com 1.10,2013-03-19 21:52:00,
2013-03-19 17:07:00,41.8,15.0,30.18,West,280,7.0,13.0,34,0.00,,,0.00,weatherlink.com 1.10,2013-03-19 22:07:00,
2013-03-19 17:22:00,41.7,14.0,30.18,West,276,7.0,13.0,33,0.00,,,0.00,weatherlink.com 1.10,2013-03-19 22:22:00,
2013-03-19 17:37:00,41.9,17.0,30.17,WSW,256,4.0,9.0,36,0.00,,,0.00,weatherlink.com 1.10,2013-03-19 22:37:00,
2013-03-19 17:52:00,41.8,14.0,30.17,WNW,293,6.0,10.0,33,0.00,,,0.00,weatherlink.com 1.10,2013-03-19 22:52:00,
2013-03-19 18:07:00,41.5,16.0,30.17,WNW,297,2.0,7.0,35,0.00,,,0.00,weatherlink.com 1.10,2013-03-19 23:07:00,
2013-03-19 18:22:00,41.5,17.0,30.17,WNW,288,6.0,10.0,37,0.00,,,0.00,weatherlink.com 1.10,2013-03-19 23:22:00,
2013-03-19 18:37:00,41.1,18.0,30.17,WNW,285,4.0,9.0,39,0.00,,,0.00,weatherlink.com 1.10,2013-03-19 23:37:00,
2013-03-19 18:52:00,40.4,16.0,30.18,WNW,297,3.0,9.0,38,0.00,,,0.00,weatherlink.com 1.10,2013-03-19 23:52:00,
2013-03-19 19:08:00,39.6,16.0,30.18,WNW,290,4.0,7.0,38,0.00,,,0.00,weatherlink.com 1.10,2013-03-20 00:08:00,
2013-03-19 19:22:00,38.5,17.0,30.18,WNW,288,3.0,6.0,41,0.00,,,0.00,weatherlink.com 1.10,2013-03-20 00:22:00,
2013-03-19 19:37:00,37.9,17.0,30.18,WNW,282,2.0,5.0,42,0.00,,,0.00,weatherlink.com 1.10,2013-03-20 00:37:00,
2013-03-19 19:52:00,37.5,16.0,30.18,West,280,1.0,3.0,42,0.00,,,0.00,weatherlink.com 1.10,2013-03-20 00:52:00,
2013-03-19 20:07:00,37.4,16.0,30.18,WNW,288,2.0,4.0,42,0.00,,,0.00,weatherlink.com 1.10,2013-03-20 01:07:00,
2013-03-19 20:22:00,36.8,16.0,30.18,West,279,1.0,2.0,42,0.00,,,0.00,weatherlink.com 1.10,2013-03-20 01:22:00,
2013-03-19 20:37:00,36.1,15.0,30.18,West,280,1.0,1.0,43,0.00,,,0.00,weatherlink.com 1.10,2013-03-20 01:37:00,
2013-03-19 20:52:00,35.5,15.0,30.18,West,280,1.0,1.0,44,0.00,,,0.00,weatherlink.com 1.10,2013-03-20 01:52:00,
2013-03-19 21:07:00,35.2,16.0,30.18,West,281,1.0,2.0,45,0.00,,,0.00,weatherlink.com 1.10,2013-03-20 02:07:00,
2013-03-19 21:22:00,35.1,16.0,30.18,WNW,287,1.0,4.0,46,0.00,,,0.00,weatherlink.com 1.10,2013-03-20 02:22:00,
2013-03-19 21:37:00,35.1,16.0,30.18,West,267,2.0,2.0,45,0.00,,,0.00,weatherlink.com 1.10,2013-03-20 02:37:00,
2013-03-19 21:52:00,35.1,16.0,30.17,West,275,2.0,3.0,45,0.00,,,0.00,weatherlink.com 1.10,2013-03-20 02:52:00,
2013-03-19 22:22:00,34.9,17.0,30.17,WNW,283,2.0,6.0,48,0.00,,,0.00,weatherlink.com 1.10,2013-03-20 03:22:00,
2013-03-19 22:52:00,34.1,18.0,30.17,WNW,283,1.0,3.0,51,0.00,,,0.00,weatherlink.com 1.10,2013-03-20 03:52:00,
2013-03-19 23:22:00,31.5,18.0,30.17,NNW,335,1.0,5.0,58,0.00,,,0.00,weatherlink.com 1.10,2013-03-20 04:22:00,
2013-03-19 23:37:00,30.8,18.0,30.16,West,266,1.0,4.0,60,0.00,,,0.00,weatherlink.com 1.10,2013-03-20 04:37:00,
2013-03-19 23:52:00,30.9,18.0,30.16,WNW,291,2.0,3.0,60,0.00,,,0.00,weatherlink.com 1.10,2013-03-20 04:52:00,